sensor_id;sensor_type;location;lat;lon;timestamp;temperature;humidity
8248;DHT22;4164;49.844;8.830;2022-10-17T00:01:58;16.00;99.90
8248;DHT22;4164;49.844;8.830;2022-10-17T00:04:23;16.00;99.90
8248;DHT22;4164;49.844;8.830;2022-10-17T00:06:49;16.00;99.90
8248;DHT22;4164;49.844;8.830;2022-10-17T00:09:14;16.10;99.90
8248;DHT22;4164;49.844;8.830;2022-10-17T00:11:40;16.10;99.90
8248;DHT22;4164;49.844;8.830;2022-10-17T00:14:06;16.10;99.90
8248;DHT22;4164;49.844;8.830;2022-10-17T00:16:34;16.00;99.90
8248;DHT22;4164;49.844;8.830;2022-10-17T00:19:05;16.00;99.90
8248;DHT22;4164;49.844;8.830;2022-10-17T00:21:31;16.00;99.90
8248;DHT22;4164;49.844;8.830;2022-10-17T00:23:58;16.00;99.90
8248;DHT22;4164;49.844;8.830;2022-10-17T00:26:24;16.00;99.90
8248;DHT22;4164;49.844;8.830;2022-10-17T00:28:51;16.00;99.90
8248;DHT22;4164;49.844;8.830;2022-10-17T00:31:19;16.10;99.90
8248;DHT22;4164;49.844;8.830;2022-10-17T00:33:45;16.10;99.90
8248;DHT22;4164;49.844;8.830;2022-10-17T00:36:13;16.10;99.90
8248;DHT22;4164;49.844;8.830;2022-10-17T00:38:41;16.10;99.90
8248;DHT22;4164;49.844;8.830;2022-10-17T00:41:11;16.10;99.90
8248;DHT22;4164;49.844;8.830;2022-10-17T00:44:01;16.00;99.90
8248;DHT22;4164;49.844;8.830;2022-10-17T00:46:33;16.00;99.90
8248;DHT22;4164;49.844;8.830;2022-10-17T00:49:10;16.00;99.90
8248;DHT22;4164;49.844;8.830;2022-10-17T00:51:44;15.90;99.90
8248;DHT22;4164;49.844;8.830;2022-10-17T00:54:13;15.90;99.90
8248;DHT22;4164;49.844;8.830;2022-10-17T00:56:39;16.00;99.90
8248;DHT22;4164;49.844;8.830;2022-10-17T00:59:08;16.00;99.90
8248;DHT22;4164;49.844;8.830;2022-10-17T01:01:35;16.00;99.90
8248;DHT22;4164;49.844;8.830;2022-10-17T01:04:01;16.10;99.90
8248;DHT22;4164;49.844;8.830;2022-10-17T01:06:26;16.10;99.90
8248;DHT22;4164;49.844;8.830;2022-10-17T01:08:52;16.10;99.90
8248;DHT22;4164;49.844;8.830;2022-10-17T01:11:30;16.10;99.90
8248;DHT22;4164;49.844;8.830;2022-10-17T01:14:15;16.10;99.90
8248;DHT22;4164;49.844;8.830;2022-10-17T01:16:50;16.00;99.90
8248;DHT22;4164;49.844;8.830;2022-10-17T01:19:38;16.00;99.90
8248;DHT22;4164;49.844;8.830;2022-10-17T01:22:17;16.00;99.90
8248;DHT22;4164;49.844;8.830;2022-10-17T01:31:27;15.80;99.90
8248;DHT22;4164;49.844;8.830;2022-10-17T01:38:48;15.80;99.90
8248;DHT22;4164;49.844;8.830;2022-10-17T01:41:29;15.80;99.90
8248;DHT22;4164;49.844;8.830;2022-10-17T01:47:05;15.80;99.90
8248;DHT22;4164;49.844;8.830;2022-10-17T01:49:34;15.70;99.90
8248;DHT22;4164;49.844;8.830;2022-10-17T01:52:22;15.80;99.90
8248;DHT22;4164;49.844;8.830;2022-10-17T01:54:52;15.80;99.90
8248;DHT22;4164;49.844;8.830;2022-10-17T01:59:51;15.80;99.90
8248;DHT22;4164;49.844;8.830;2022-10-17T02:02:18;15.80;99.90
8248;DHT22;4164;49.844;8.830;2022-10-17T02:04:46;15.80;99.90
8248;DHT22;4164;49.844;8.830;2022-10-17T02:07:12;15.70;99.90
8248;DHT22;4164;49.844;8.830;2022-10-17T02:09:38;15.70;99.90
8248;DHT22;4164;49.844;8.830;2022-10-17T02:17:29;15.60;99.90
8248;DHT22;4164;49.844;8.830;2022-10-17T02:20:30;15.70;99.90
8248;DHT22;4164;49.844;8.830;2022-10-17T02:28:46;15.70;99.90
8248;DHT22;4164;49.844;8.830;2022-10-17T02:31:16;15.80;99.90
8248;DHT22;4164;49.844;8.830;2022-10-17T02:36:18;15.80;99.90
8248;DHT22;4164;49.844;8.830;2022-10-17T02:38:45;15.80;99.90
8248;DHT22;4164;49.844;8.830;2022-10-17T02:41:14;15.80;99.90
8248;DHT22;4164;49.844;8.830;2022-10-17T02:43:40;15.80;99.90
8248;DHT22;4164;49.844;8.830;2022-10-17T02:46:11;15.80;99.90
8248;DHT22;4164;49.844;8.830;2022-10-17T02:48:49;15.80;99.90
8248;DHT22;4164;49.844;8.830;2022-10-17T02:56:41;15.80;99.90
8248;DHT22;4164;49.844;8.830;2022-10-17T02:59:09;15.80;99.90
8248;DHT22;4164;49.844;8.830;2022-10-17T03:01:35;15.80;99.90
8248;DHT22;4164;49.844;8.830;2022-10-17T03:04:09;15.70;99.90
8248;DHT22;4164;49.844;8.830;2022-10-17T03:06:35;15.70;99.90
8248;DHT22;4164;49.844;8.830;2022-10-17T03:09:01;15.70;99.90
8248;DHT22;4164;49.844;8.830;2022-10-17T03:11:26;15.70;99.90
8248;DHT22;4164;49.844;8.830;2022-10-17T03:13:52;15.70;99.90
8248;DHT22;4164;49.844;8.830;2022-10-17T03:16:17;15.60;99.90
8248;DHT22;4164;49.844;8.830;2022-10-17T03:18:43;15.70;99.90
8248;DHT22;4164;49.844;8.830;2022-10-17T03:21:08;15.70;99.90
8248;DHT22;4164;49.844;8.830;2022-10-17T03:23:34;15.80;99.90
8248;DHT22;4164;49.844;8.830;2022-10-17T03:26:03;15.80;99.90
8248;DHT22;4164;49.844;8.830;2022-10-17T03:28:29;15.80;99.90
8248;DHT22;4164;49.844;8.830;2022-10-17T03:30:55;15.90;99.90
8248;DHT22;4164;49.844;8.830;2022-10-17T03:33:20;15.90;99.90
8248;DHT22;4164;49.844;8.830;2022-10-17T03:35:46;15.90;99.90
8248;DHT22;4164;49.844;8.830;2022-10-17T03:38:11;16.00;99.90
8248;DHT22;4164;49.844;8.830;2022-10-17T03:40:37;16.00;99.90
8248;DHT22;4164;49.844;8.830;2022-10-17T03:43:02;16.00;99.90
8248;DHT22;4164;49.844;8.830;2022-10-17T03:45:28;16.00;99.90
8248;DHT22;4164;49.844;8.830;2022-10-17T03:47:53;15.90;99.90
8248;DHT22;4164;49.844;8.830;2022-10-17T03:50:19;15.90;99.90
8248;DHT22;4164;49.844;8.830;2022-10-17T03:52:48;15.90;99.90
8248;DHT22;4164;49.844;8.830;2022-10-17T03:55:14;15.90;99.90
8248;DHT22;4164;49.844;8.830;2022-10-17T03:57:40;15.90;99.90
8248;DHT22;4164;49.844;8.830;2022-10-17T04:00:06;15.90;99.90
8248;DHT22;4164;49.844;8.830;2022-10-17T04:02:31;16.00;99.90
8248;DHT22;4164;49.844;8.830;2022-10-17T04:04:59;15.90;99.90
8248;DHT22;4164;49.844;8.830;2022-10-17T04:07:24;15.90;99.90
8248;DHT22;4164;49.844;8.830;2022-10-17T04:09:50;15.80;99.90
8248;DHT22;4164;49.844;8.830;2022-10-17T04:12:16;15.80;99.90
8248;DHT22;4164;49.844;8.830;2022-10-17T04:14:41;15.80;99.90
8248;DHT22;4164;49.844;8.830;2022-10-17T04:17:07;15.70;99.90
8248;DHT22;4164;49.844;8.830;2022-10-17T04:19:35;15.70;99.90
8248;DHT22;4164;49.844;8.830;2022-10-17T04:22:01;15.60;99.90
8248;DHT22;4164;49.844;8.830;2022-10-17T04:24:28;15.50;99.90
8248;DHT22;4164;49.844;8.830;2022-10-17T04:26:53;15.50;99.90
8248;DHT22;4164;49.844;8.830;2022-10-17T04:29:19;15.50;99.90
8248;DHT22;4164;49.844;8.830;2022-10-17T04:31:45;15.40;99.90
8248;DHT22;4164;49.844;8.830;2022-10-17T04:34:11;15.40;99.90
8248;DHT22;4164;49.844;8.830;2022-10-17T04:36:38;15.40;99.90
8248;DHT22;4164;49.844;8.830;2022-10-17T04:39:04;15.40;99.90
8248;DHT22;4164;49.844;8.830;2022-10-17T04:41:30;15.40;99.90
8248;DHT22;4164;49.844;8.830;2022-10-17T04:43:56;15.40;99.90
8248;DHT22;4164;49.844;8.830;2022-10-17T04:46:21;15.40;99.90
8248;DHT22;4164;49.844;8.830;2022-10-17T04:48:47;15.40;99.90
8248;DHT22;4164;49.844;8.830;2022-10-17T04:51:15;15.40;99.90
8248;DHT22;4164;49.844;8.830;2022-10-17T04:53:41;15.40;99.90
8248;DHT22;4164;49.844;8.830;2022-10-17T04:56:13;15.40;99.90
8248;DHT22;4164;49.844;8.830;2022-10-17T04:58:40;15.30;99.90
8248;DHT22;4164;49.844;8.830;2022-10-17T05:01:07;15.30;99.90
8248;DHT22;4164;49.844;8.830;2022-10-17T05:03:34;15.30;99.90
8248;DHT22;4164;49.844;8.830;2022-10-17T05:06:04;15.20;99.90
8248;DHT22;4164;49.844;8.830;2022-10-17T05:08:29;15.20;99.90
8248;DHT22;4164;49.844;8.830;2022-10-17T05:10:55;15.10;99.90
8248;DHT22;4164;49.844;8.830;2022-10-17T05:13:21;15.00;99.90
8248;DHT22;4164;49.844;8.830;2022-10-17T05:15:46;14.80;99.90
8248;DHT22;4164;49.844;8.830;2022-10-17T05:18:12;14.60;99.90
8248;DHT22;4164;49.844;8.830;2022-10-17T05:20:37;14.50;99.90
8248;DHT22;4164;49.844;8.830;2022-10-17T05:23:03;14.40;99.90
8248;DHT22;4164;49.844;8.830;2022-10-17T05:25:28;14.20;99.90
8248;DHT22;4164;49.844;8.830;2022-10-17T05:27:54;14.20;99.90
8248;DHT22;4164;49.844;8.830;2022-10-17T05:30:19;14.20;99.90
8248;DHT22;4164;49.844;8.830;2022-10-17T05:32:45;14.10;99.90
8248;DHT22;4164;49.844;8.830;2022-10-17T05:35:10;14.20;99.90
8248;DHT22;4164;49.844;8.830;2022-10-17T05:37:36;14.20;99.90
8248;DHT22;4164;49.844;8.830;2022-10-17T05:40:02;14.20;99.90
8248;DHT22;4164;49.844;8.830;2022-10-17T05:42:27;14.20;99.90
8248;DHT22;4164;49.844;8.830;2022-10-17T05:44:53;14.20;99.90
8248;DHT22;4164;49.844;8.830;2022-10-17T05:47:18;14.20;99.90
8248;DHT22;4164;49.844;8.830;2022-10-17T05:49:44;14.20;99.90
8248;DHT22;4164;49.844;8.830;2022-10-17T05:52:10;14.30;99.90
8248;DHT22;4164;49.844;8.830;2022-10-17T05:54:35;14.50;99.90
8248;DHT22;4164;49.844;8.830;2022-10-17T05:57:01;14.70;99.90
8248;DHT22;4164;49.844;8.830;2022-10-17T05:59:26;14.90;99.90
8248;DHT22;4164;49.844;8.830;2022-10-17T06:01:53;15.00;99.90
8248;DHT22;4164;49.844;8.830;2022-10-17T06:04:18;15.10;99.90
8248;DHT22;4164;49.844;8.830;2022-10-17T06:06:44;15.10;99.90
8248;DHT22;4164;49.844;8.830;2022-10-17T06:09:10;15.10;99.90
8248;DHT22;4164;49.844;8.830;2022-10-17T06:11:36;15.10;99.90
8248;DHT22;4164;49.844;8.830;2022-10-17T06:14:02;15.00;99.90
8248;DHT22;4164;49.844;8.830;2022-10-17T06:16:28;15.10;99.90
8248;DHT22;4164;49.844;8.830;2022-10-17T06:18:53;15.20;99.90
8248;DHT22;4164;49.844;8.830;2022-10-17T06:21:24;15.10;99.90
8248;DHT22;4164;49.844;8.830;2022-10-17T06:23:50;15.20;99.90
8248;DHT22;4164;49.844;8.830;2022-10-17T06:26:16;15.20;99.90
8248;DHT22;4164;49.844;8.830;2022-10-17T06:28:42;15.10;99.90
8248;DHT22;4164;49.844;8.830;2022-10-17T06:31:10;15.00;99.90
8248;DHT22;4164;49.844;8.830;2022-10-17T06:33:35;15.00;99.90
8248;DHT22;4164;49.844;8.830;2022-10-17T06:36:02;15.10;99.90
8248;DHT22;4164;49.844;8.830;2022-10-17T06:38:28;15.00;99.90
8248;DHT22;4164;49.844;8.830;2022-10-17T06:40:54;14.90;99.90
8248;DHT22;4164;49.844;8.830;2022-10-17T06:43:22;14.80;99.90
8248;DHT22;4164;49.844;8.830;2022-10-17T06:45:47;14.60;99.90
8248;DHT22;4164;49.844;8.830;2022-10-17T06:48:13;14.60;99.90
8248;DHT22;4164;49.844;8.830;2022-10-17T06:50:39;14.70;99.90
8248;DHT22;4164;49.844;8.830;2022-10-17T06:53:05;14.70;99.90
8248;DHT22;4164;49.844;8.830;2022-10-17T06:55:31;14.90;99.90
8248;DHT22;4164;49.844;8.830;2022-10-17T06:57:57;14.90;99.90
8248;DHT22;4164;49.844;8.830;2022-10-17T07:00:23;14.90;99.90
8248;DHT22;4164;49.844;8.830;2022-10-17T07:02:51;15.00;99.90
8248;DHT22;4164;49.844;8.830;2022-10-17T07:05:16;15.20;99.90
8248;DHT22;4164;49.844;8.830;2022-10-17T07:07:43;15.30;99.90
8248;DHT22;4164;49.844;8.830;2022-10-17T07:10:09;15.60;99.90
8248;DHT22;4164;49.844;8.830;2022-10-17T07:12:35;16.00;99.90
8248;DHT22;4164;49.844;8.830;2022-10-17T07:15:02;16.30;99.90
8248;DHT22;4164;49.844;8.830;2022-10-17T07:17:29;16.50;99.90
8248;DHT22;4164;49.844;8.830;2022-10-17T07:19:55;16.60;99.90
8248;DHT22;4164;49.844;8.830;2022-10-17T07:22:20;16.80;99.90
8248;DHT22;4164;49.844;8.830;2022-10-17T07:24:46;17.00;99.90
8248;DHT22;4164;49.844;8.830;2022-10-17T07:27:12;17.00;99.90
8248;DHT22;4164;49.844;8.830;2022-10-17T07:29:38;17.10;99.90
8248;DHT22;4164;49.844;8.830;2022-10-17T07:32:03;17.10;99.90
8248;DHT22;4164;49.844;8.830;2022-10-17T07:34:36;17.00;99.90
8248;DHT22;4164;49.844;8.830;2022-10-17T07:37:02;17.00;99.90
8248;DHT22;4164;49.844;8.830;2022-10-17T07:39:28;17.00;99.90
8248;DHT22;4164;49.844;8.830;2022-10-17T07:41:53;17.10;99.90
8248;DHT22;4164;49.844;8.830;2022-10-17T07:44:19;17.00;99.90
8248;DHT22;4164;49.844;8.830;2022-10-17T07:46:44;17.30;99.90
8248;DHT22;4164;49.844;8.830;2022-10-17T07:49:10;17.40;99.90
8248;DHT22;4164;49.844;8.830;2022-10-17T07:51:36;17.60;99.90
8248;DHT22;4164;49.844;8.830;2022-10-17T07:54:03;17.40;99.90
8248;DHT22;4164;49.844;8.830;2022-10-17T07:56:29;17.30;99.90
8248;DHT22;4164;49.844;8.830;2022-10-17T07:58:54;17.30;99.90
8248;DHT22;4164;49.844;8.830;2022-10-17T08:01:21;17.30;99.90
8248;DHT22;4164;49.844;8.830;2022-10-17T08:03:47;17.50;99.90
8248;DHT22;4164;49.844;8.830;2022-10-17T08:06:15;17.60;99.90
8248;DHT22;4164;49.844;8.830;2022-10-17T08:08:41;17.80;99.90
8248;DHT22;4164;49.844;8.830;2022-10-17T08:11:10;17.90;99.90
8248;DHT22;4164;49.844;8.830;2022-10-17T08:13:36;18.00;99.90
8248;DHT22;4164;49.844;8.830;2022-10-17T08:16:05;18.20;99.90
8248;DHT22;4164;49.844;8.830;2022-10-17T08:18:32;18.40;99.90
8248;DHT22;4164;49.844;8.830;2022-10-17T08:21:03;18.60;99.90
8248;DHT22;4164;49.844;8.830;2022-10-17T08:23:33;18.90;99.90
8248;DHT22;4164;49.844;8.830;2022-10-17T08:26:03;19.30;99.90
8248;DHT22;4164;49.844;8.830;2022-10-17T08:28:28;19.80;99.90
8248;DHT22;4164;49.844;8.830;2022-10-17T08:31:05;20.00;99.90
8248;DHT22;4164;49.844;8.830;2022-10-17T08:33:31;20.20;99.90
8248;DHT22;4164;49.844;8.830;2022-10-17T08:35:59;20.30;99.90
8248;DHT22;4164;49.844;8.830;2022-10-17T08:38:25;20.60;99.90
8248;DHT22;4164;49.844;8.830;2022-10-17T08:40:55;20.70;99.90
8248;DHT22;4164;49.844;8.830;2022-10-17T08:43:57;20.90;99.90
8248;DHT22;4164;49.844;8.830;2022-10-17T08:46:34;21.10;99.90
8248;DHT22;4164;49.844;8.830;2022-10-17T08:49:01;21.50;99.90
8248;DHT22;4164;49.844;8.830;2022-10-17T08:51:31;21.90;99.90
8248;DHT22;4164;49.844;8.830;2022-10-17T08:54:17;21.90;99.90
8248;DHT22;4164;49.844;8.830;2022-10-17T08:56:48;22.10;99.90
8248;DHT22;4164;49.844;8.830;2022-10-17T08:59:26;22.10;99.90
8248;DHT22;4164;49.844;8.830;2022-10-17T09:08:01;22.30;99.90
8248;DHT22;4164;49.844;8.830;2022-10-17T09:10:50;22.50;99.90
8248;DHT22;4164;49.844;8.830;2022-10-17T09:16:19;22.80;99.90
8248;DHT22;4164;49.844;8.830;2022-10-17T09:19:02;22.80;99.90
8248;DHT22;4164;49.844;8.830;2022-10-17T09:21:55;22.90;99.90
8248;DHT22;4164;49.844;8.830;2022-10-17T09:24:33;23.10;99.90
8248;DHT22;4164;49.844;8.830;2022-10-17T09:27:02;23.20;99.90
8248;DHT22;4164;49.844;8.830;2022-10-17T09:29:28;23.10;99.90
8248;DHT22;4164;49.844;8.830;2022-10-17T09:32:04;23.20;99.90
8248;DHT22;4164;49.844;8.830;2022-10-17T09:34:34;23.30;99.90
8248;DHT22;4164;49.844;8.830;2022-10-17T09:37:01;23.20;99.90
8248;DHT22;4164;49.844;8.830;2022-10-17T09:39:27;22.90;99.90
8248;DHT22;4164;49.844;8.830;2022-10-17T09:41:58;22.90;99.90
8248;DHT22;4164;49.844;8.830;2022-10-17T09:44:35;22.90;99.90
8248;DHT22;4164;49.844;8.830;2022-10-17T09:49:53;22.90;99.90
8248;DHT22;4164;49.844;8.830;2022-10-17T09:52:33;23.20;99.90
8248;DHT22;4164;49.844;8.830;2022-10-17T09:55:26;23.20;99.90
8248;DHT22;4164;49.844;8.830;2022-10-17T09:58:02;23.60;99.90
8248;DHT22;4164;49.844;8.830;2022-10-17T10:00:43;24.60;99.90
8248;DHT22;4164;49.844;8.830;2022-10-17T10:03:20;25.80;99.90
8248;DHT22;4164;49.844;8.830;2022-10-17T10:06:16;26.90;99.90
8248;DHT22;4164;49.844;8.830;2022-10-17T10:08:53;27.10;99.90
8248;DHT22;4164;49.844;8.830;2022-10-17T10:11:25;28.30;99.90
8248;DHT22;4164;49.844;8.830;2022-10-17T10:14:18;29.70;99.90
8248;DHT22;4164;49.844;8.830;2022-10-17T10:16:46;29.10;99.90
8248;DHT22;4164;49.844;8.830;2022-10-17T10:21:58;30.00;99.90
8248;DHT22;4164;49.844;8.830;2022-10-17T10:24:24;30.10;99.90
8248;DHT22;4164;49.844;8.830;2022-10-17T10:26:51;31.10;99.90
8248;DHT22;4164;49.844;8.830;2022-10-17T10:29:37;31.10;99.90
8248;DHT22;4164;49.844;8.830;2022-10-17T10:32:20;30.00;99.90
8248;DHT22;4164;49.844;8.830;2022-10-17T10:34:56;29.20;99.90
8248;DHT22;4164;49.844;8.830;2022-10-17T10:37:22;30.20;99.90
8248;DHT22;4164;49.844;8.830;2022-10-17T10:39:58;30.30;99.90
8248;DHT22;4164;49.844;8.830;2022-10-17T10:42:31;29.60;99.90
8248;DHT22;4164;49.844;8.830;2022-10-17T10:45:02;30.30;99.90
8248;DHT22;4164;49.844;8.830;2022-10-17T10:47:30;30.20;99.90
8248;DHT22;4164;49.844;8.830;2022-10-17T10:50:39;30.50;99.90
8248;DHT22;4164;49.844;8.830;2022-10-17T10:55:53;32.10;99.90
8248;DHT22;4164;49.844;8.830;2022-10-17T10:58:28;32.60;99.90
8248;DHT22;4164;49.844;8.830;2022-10-17T11:00:55;34.60;99.90
8248;DHT22;4164;49.844;8.830;2022-10-17T11:03:28;34.00;99.90
8248;DHT22;4164;49.844;8.830;2022-10-17T11:06:11;33.10;99.90
8248;DHT22;4164;49.844;8.830;2022-10-17T11:11:42;30.70;99.90
8248;DHT22;4164;49.844;8.830;2022-10-17T11:14:17;32.50;99.90
8248;DHT22;4164;49.844;8.830;2022-10-17T11:16:52;32.50;99.90
8248;DHT22;4164;49.844;8.830;2022-10-17T11:19:37;31.80;99.60
8248;DHT22;4164;49.844;8.830;2022-10-17T11:22:26;32.40;99.10
8248;DHT22;4164;49.844;8.830;2022-10-17T11:27:27;30.50;99.30
8248;DHT22;4164;49.844;8.830;2022-10-17T11:29:53;31.10;99.00
8248;DHT22;4164;49.844;8.830;2022-10-17T11:35:05;30.40;98.80
8248;DHT22;4164;49.844;8.830;2022-10-17T11:37:37;30.80;98.40
8248;DHT22;4164;49.844;8.830;2022-10-17T11:40:28;31.10;98.70
8248;DHT22;4164;49.844;8.830;2022-10-17T11:42:59;30.60;98.20
8248;DHT22;4164;49.844;8.830;2022-10-17T11:45:30;30.10;98.50
8248;DHT22;4164;49.844;8.830;2022-10-17T11:47:59;30.30;98.50
8248;DHT22;4164;49.844;8.830;2022-10-17T11:50:48;30.60;98.70
8248;DHT22;4164;49.844;8.830;2022-10-17T11:53:17;31.00;97.50
8248;DHT22;4164;49.844;8.830;2022-10-17T11:55:43;32.50;96.50
8248;DHT22;4164;49.844;8.830;2022-10-17T11:58:47;32.20;95.50
8248;DHT22;4164;49.844;8.830;2022-10-17T12:01:38;32.30;95.50
8248;DHT22;4164;49.844;8.830;2022-10-17T12:09:50;32.10;95.80
8248;DHT22;4164;49.844;8.830;2022-10-17T12:12:31;32.70;95.90
8248;DHT22;4164;49.844;8.830;2022-10-17T12:17:59;32.30;95.10
8248;DHT22;4164;49.844;8.830;2022-10-17T12:20:36;32.60;93.90
8248;DHT22;4164;49.844;8.830;2022-10-17T12:25:53;32.00;95.30
8248;DHT22;4164;49.844;8.830;2022-10-17T12:28:31;32.10;94.40
8248;DHT22;4164;49.844;8.830;2022-10-17T12:31:04;31.20;94.80
8248;DHT22;4164;49.844;8.830;2022-10-17T12:33:46;31.20;94.90
8248;DHT22;4164;49.844;8.830;2022-10-17T12:49:39;32.50;94.20
8248;DHT22;4164;49.844;8.830;2022-10-17T12:54:42;33.00;93.20
8248;DHT22;4164;49.844;8.830;2022-10-17T12:59:48;30.70;94.60
8248;DHT22;4164;49.844;8.830;2022-10-17T13:02:19;31.20;93.90
8248;DHT22;4164;49.844;8.830;2022-10-17T13:04:47;31.10;95.10
8248;DHT22;4164;49.844;8.830;2022-10-17T13:07:21;32.50;93.90
8248;DHT22;4164;49.844;8.830;2022-10-17T13:09:48;31.40;94.40
8248;DHT22;4164;49.844;8.830;2022-10-17T13:12:20;30.80;95.60
8248;DHT22;4164;49.844;8.830;2022-10-17T13:14:49;31.40;95.10
8248;DHT22;4164;49.844;8.830;2022-10-17T13:17:23;30.70;95.40
8248;DHT22;4164;49.844;8.830;2022-10-17T13:19:48;30.20;95.90
8248;DHT22;4164;49.844;8.830;2022-10-17T13:24:44;29.70;97.60
8248;DHT22;4164;49.844;8.830;2022-10-17T13:27:39;30.60;96.60
8248;DHT22;4164;49.844;8.830;2022-10-17T13:30:29;30.10;95.80
8248;DHT22;4164;49.844;8.830;2022-10-17T13:32:55;28.30;97.60
8248;DHT22;4164;49.844;8.830;2022-10-17T13:35:31;27.30;99.50
8248;DHT22;4164;49.844;8.830;2022-10-17T13:37:59;27.00;99.90
8248;DHT22;4164;49.844;8.830;2022-10-17T13:40:27;26.80;99.90
8248;DHT22;4164;49.844;8.830;2022-10-17T13:42:55;25.90;99.90
8248;DHT22;4164;49.844;8.830;2022-10-17T13:45:29;25.70;99.90
8248;DHT22;4164;49.844;8.830;2022-10-17T13:47:57;25.10;99.90
8248;DHT22;4164;49.844;8.830;2022-10-17T13:50:36;25.20;99.90
8248;DHT22;4164;49.844;8.830;2022-10-17T13:53:32;25.10;99.90
8248;DHT22;4164;49.844;8.830;2022-10-17T13:56:17;24.80;99.90
8248;DHT22;4164;49.844;8.830;2022-10-17T13:58:48;24.70;99.90
8248;DHT22;4164;49.844;8.830;2022-10-17T14:01:15;24.60;99.90
8248;DHT22;4164;49.844;8.830;2022-10-17T14:03:42;24.70;99.90
8248;DHT22;4164;49.844;8.830;2022-10-17T14:06:22;24.60;99.90
8248;DHT22;4164;49.844;8.830;2022-10-17T14:08:50;24.40;99.90
8248;DHT22;4164;49.844;8.830;2022-10-17T14:11:23;24.50;99.90
8248;DHT22;4164;49.844;8.830;2022-10-17T14:13:51;24.50;99.90
8248;DHT22;4164;49.844;8.830;2022-10-17T14:16:18;24.40;99.90
8248;DHT22;4164;49.844;8.830;2022-10-17T14:18:47;24.40;99.90
8248;DHT22;4164;49.844;8.830;2022-10-17T14:21:23;24.30;99.90
8248;DHT22;4164;49.844;8.830;2022-10-17T14:23:50;24.10;99.90
8248;DHT22;4164;49.844;8.830;2022-10-17T14:26:22;24.00;99.90
8248;DHT22;4164;49.844;8.830;2022-10-17T14:29:21;24.10;99.90
8248;DHT22;4164;49.844;8.830;2022-10-17T14:31:48;24.30;99.90
8248;DHT22;4164;49.844;8.830;2022-10-17T14:34:21;24.10;99.90
8248;DHT22;4164;49.844;8.830;2022-10-17T14:36:50;23.90;99.90
8248;DHT22;4164;49.844;8.830;2022-10-17T14:39:24;24.00;99.90
8248;DHT22;4164;49.844;8.830;2022-10-17T14:41:50;24.00;99.90
8248;DHT22;4164;49.844;8.830;2022-10-17T14:44:33;24.10;99.90
8248;DHT22;4164;49.844;8.830;2022-10-17T14:47:01;24.00;99.90
8248;DHT22;4164;49.844;8.830;2022-10-17T14:49:40;24.00;99.90
8248;DHT22;4164;49.844;8.830;2022-10-17T14:54:43;24.00;99.90
8248;DHT22;4164;49.844;8.830;2022-10-17T14:57:21;24.00;99.90
8248;DHT22;4164;49.844;8.830;2022-10-17T14:59:47;24.00;99.90
8248;DHT22;4164;49.844;8.830;2022-10-17T15:02:13;24.00;99.90
8248;DHT22;4164;49.844;8.830;2022-10-17T15:04:38;24.00;99.90
8248;DHT22;4164;49.844;8.830;2022-10-17T15:07:04;23.90;99.90
8248;DHT22;4164;49.844;8.830;2022-10-17T15:09:30;23.70;99.90
8248;DHT22;4164;49.844;8.830;2022-10-17T15:12:00;23.60;99.90
8248;DHT22;4164;49.844;8.830;2022-10-17T15:14:27;23.50;99.90
8248;DHT22;4164;49.844;8.830;2022-10-17T15:16:52;23.20;99.90
8248;DHT22;4164;49.844;8.830;2022-10-17T15:19:18;23.20;99.90
8248;DHT22;4164;49.844;8.830;2022-10-17T15:21:43;23.10;99.90
8248;DHT22;4164;49.844;8.830;2022-10-17T15:24:09;23.00;99.90
8248;DHT22;4164;49.844;8.830;2022-10-17T15:26:34;23.10;99.90
8248;DHT22;4164;49.844;8.830;2022-10-17T15:29:01;23.20;99.90
8248;DHT22;4164;49.844;8.830;2022-10-17T15:31:28;23.10;99.90
8248;DHT22;4164;49.844;8.830;2022-10-17T15:33:55;23.20;99.90
8248;DHT22;4164;49.844;8.830;2022-10-17T15:36:26;23.20;99.90
8248;DHT22;4164;49.844;8.830;2022-10-17T15:38:57;23.10;99.90
8248;DHT22;4164;49.844;8.830;2022-10-17T15:41:24;23.10;99.90
8248;DHT22;4164;49.844;8.830;2022-10-17T15:43:50;23.30;99.90
8248;DHT22;4164;49.844;8.830;2022-10-17T15:46:22;23.20;99.90
8248;DHT22;4164;49.844;8.830;2022-10-17T15:48:50;23.20;99.90
8248;DHT22;4164;49.844;8.830;2022-10-17T15:51:16;23.00;99.90
8248;DHT22;4164;49.844;8.830;2022-10-17T15:53:42;22.90;99.90
8248;DHT22;4164;49.844;8.830;2022-10-17T15:58:45;22.70;99.90
8248;DHT22;4164;49.844;8.830;2022-10-17T16:01:20;22.60;99.90
8248;DHT22;4164;49.844;8.830;2022-10-17T16:03:46;22.60;99.90
8248;DHT22;4164;49.844;8.830;2022-10-17T16:06:13;22.30;99.90
8248;DHT22;4164;49.844;8.830;2022-10-17T16:08:38;22.10;99.90
8248;DHT22;4164;49.844;8.830;2022-10-17T16:11:04;21.90;99.90
8248;DHT22;4164;49.844;8.830;2022-10-17T16:13:30;21.70;99.90
8248;DHT22;4164;49.844;8.830;2022-10-17T16:15:56;21.70;99.90
8248;DHT22;4164;49.844;8.830;2022-10-17T16:18:21;21.70;99.90
8248;DHT22;4164;49.844;8.830;2022-10-17T16:20:47;21.70;99.90
8248;DHT22;4164;49.844;8.830;2022-10-17T16:23:13;21.60;99.90
8248;DHT22;4164;49.844;8.830;2022-10-17T16:25:39;21.60;99.90
8248;DHT22;4164;49.844;8.830;2022-10-17T16:28:05;21.50;99.90
8248;DHT22;4164;49.844;8.830;2022-10-17T16:30:37;21.40;99.90
8248;DHT22;4164;49.844;8.830;2022-10-17T16:33:07;21.10;99.90
8248;DHT22;4164;49.844;8.830;2022-10-17T16:35:32;21.00;99.90
8248;DHT22;4164;49.844;8.830;2022-10-17T16:37:58;21.00;99.90
8248;DHT22;4164;49.844;8.830;2022-10-17T16:40:24;21.00;99.90
8248;DHT22;4164;49.844;8.830;2022-10-17T16:42:49;20.90;99.90
8248;DHT22;4164;49.844;8.830;2022-10-17T16:45:17;20.60;99.90
8248;DHT22;4164;49.844;8.830;2022-10-17T16:47:43;20.40;99.90
8248;DHT22;4164;49.844;8.830;2022-10-17T16:50:09;20.20;99.90
8248;DHT22;4164;49.844;8.830;2022-10-17T16:52:35;19.90;99.90
8248;DHT22;4164;49.844;8.830;2022-10-17T16:55:00;19.80;99.90
8248;DHT22;4164;49.844;8.830;2022-10-17T16:57:26;19.70;99.90
8248;DHT22;4164;49.844;8.830;2022-10-17T16:59:51;19.50;99.90
8248;DHT22;4164;49.844;8.830;2022-10-17T17:02:17;19.30;99.90
8248;DHT22;4164;49.844;8.830;2022-10-17T17:04:43;19.20;99.90
8248;DHT22;4164;49.844;8.830;2022-10-17T17:07:08;19.20;99.90
8248;DHT22;4164;49.844;8.830;2022-10-17T17:09:34;19.10;99.90
8248;DHT22;4164;49.844;8.830;2022-10-17T17:11:59;19.00;99.90
8248;DHT22;4164;49.844;8.830;2022-10-17T17:14:25;19.00;99.90
8248;DHT22;4164;49.844;8.830;2022-10-17T17:16:50;19.00;99.90
8248;DHT22;4164;49.844;8.830;2022-10-17T17:19:16;19.10;99.90
8248;DHT22;4164;49.844;8.830;2022-10-17T17:21:42;19.10;99.90
8248;DHT22;4164;49.844;8.830;2022-10-17T17:24:12;19.00;99.90
8248;DHT22;4164;49.844;8.830;2022-10-17T17:26:38;18.90;99.90
8248;DHT22;4164;49.844;8.830;2022-10-17T17:29:05;18.90;99.90
8248;DHT22;4164;49.844;8.830;2022-10-17T17:31:32;18.90;99.90
8248;DHT22;4164;49.844;8.830;2022-10-17T17:33:58;18.90;99.90
8248;DHT22;4164;49.844;8.830;2022-10-17T17:36:27;18.90;99.90
8248;DHT22;4164;49.844;8.830;2022-10-17T17:38:54;18.90;99.90
8248;DHT22;4164;49.844;8.830;2022-10-17T17:41:21;18.80;99.90
8248;DHT22;4164;49.844;8.830;2022-10-17T17:43:47;18.80;99.90
8248;DHT22;4164;49.844;8.830;2022-10-17T17:46:15;18.70;99.90
8248;DHT22;4164;49.844;8.830;2022-10-17T17:48:43;18.80;99.90
8248;DHT22;4164;49.844;8.830;2022-10-17T17:51:11;18.90;99.90
8248;DHT22;4164;49.844;8.830;2022-10-17T17:53:37;18.90;99.90
8248;DHT22;4164;49.844;8.830;2022-10-17T17:56:09;18.80;99.90
8248;DHT22;4164;49.844;8.830;2022-10-17T17:58:35;18.90;99.90